Tiempo atmosférico en la estación meteorológica de Almería Aeropuerto, Almería (21 m.)



Fecha
DESCASC
Temp. máxima en grados centígrados (hora)
DESCASC
Temp. mínima en grados centígrados (hora)
DESCASC
Temp. media en grados centígrados
DESCASC
Racha de viento máxima en m/sg (hora)
DESCASC
Velocidad máxima media en intervalos de 10 minutos(hora)
DESCASC
Precipitaciones diarias en mm
DESCASC
Precipitaciones de 00:00 a 06:00 en mm
DESCASC
Precipitaciones de 06:00 a 12:00 en mm
DESCASC
Precipitaciones de 12:00 a 18:00 en mm
DESCASC
Precipitaciones de 18:00 a 24:00 en mm
DESCASC
25-04-2019 20.6 (17:40) 15.3 (07:50) 18 20.56 (18:10) 15.83 (19:00) 0.3 0 0.3 0 0
24-04-2019 18.7 (14:00) 11.6 (08:30) 15.2 20 (14:50) 15.28 (14:30) 0 0 0 0 0
23-04-2019 18.6 (11:20) 14.1 (23:59) 16.4 22.22 (19:20) 16.11 (19:10) 1.9 0 0 1.9 0
22-04-2019 20.5 (17:20) 13.6 (00:00) 17.1 6.11 (13:10) 4.72 (13:10) 0 0 0 0 0
21-04-2019 17.7 (18:40) 13.5 (00:00) 15.6 8.33 (18:00) 6.11 (18:00) 11.8 1 9.8 1 0
20-04-2019 20.2 (15:00) 13.2 (00:00) 16.7 11.67 (21:40) 7.5 (21:40) 13.3 0.2 9 0.1 4
19-04-2019 20 (15:20) 12.8 (00:00) 16.4 6.67 (08:50) 5.28 (13:40) 0 0 0 0 0
18-04-2019 18.5 (00:10) 12.1 (00:00) 15.3 15 (11:50) 9.72 (12:00) 8.6 0 2.7 5.9 0
17-04-2019 26.2 (14:40) 13.6 (00:00) 19.9 18.06 (22:00) 12.5 (19:30) 0 0 0 0 0
16-04-2019 24.1 (19:00) 13.1 (00:00) 18.6 12.78 (20:50) 10 (20:50) 0 0 0 0 0
15-04-2019 24.4 (13:40) 13.3 (00:00) 18.8 10.28 (20:00) 5.83 (23:10) 0 0 0 0 0
14-04-2019 19.9 (14:30) 11.6 (00:00) 15.8 5 (15:40) 3.33 (13:00) 0 0 0 0 0
13-04-2019 20.1 (13:50) 10.3 (00:00) 15.2 7.78 (18:50) 5.56 (12:00) 0 0 0 0 0
12-04-2019 20.6 (17:00) 13.3 (00:00) 17 9.72 (07:20) 6.67 (07:20) 0 0 0 0 0
11-04-2019 19.6 (10:10) 14.4 (00:00) 17 12.78 (06:40) 8.89 (06:40) 0 0 0 0 0
10-04-2019 21.4 (19:00) 12.9 (00:00) 17.1 16.94 (05:00) 11.11 (23:10) 0 0 0 0 0
09-04-2019 20.2 (15:30) 12.8 (00:00) 16.5 20 (16:30) 14.44 (16:10) 0 0 0 0 0
08-04-2019 20.6 (16:10) 11 (00:00) 15.8 18.89 (18:00) 13.61 (16:00) 0 0 0 0 0
07-04-2019 19.4 (14:00) 8.3 (00:00) 13.8 15 (16:20) 11.39 (16:20) 0 0 0 0 0
06-04-2019 18 (14:10) 7.7 (00:00) 12.8 24.17 (18:00) 17.22 (17:10) 0.3 0 0 0 0.3
05-04-2019 17.2 (12:10) 9.7 (00:00) 13.5 21.11 (15:00) 15.56 (14:40) 1.4 0 0 1.2 0.2
04-04-2019 19.9 (14:50) 11.8 (00:00) 15.8 11.67 (07:20) 8.61 (11:40) 0 0 0 0 0
03-04-2019 19.4 (16:10) 11.7 (00:00) 15.5 14.44 (21:00) 10.56 (21:00) 0 0 0 0 0
02-04-2019 19.2 (15:00) 11.9 (00:00) 15.6 7.22 (16:00) 5.56 (16:00) 0 0 0 0 0
01-04-2019 18.9 (16:00) 12.8 (00:00) 15.8 8.33 (19:50) 6.39 (19:50) 4.5 4.5 0 0 0
31-03-2019 15.2 (17:20) 12.6 (00:00) 13.9 9.72 (13:20) 6.39 (00:10) 6.8 1 0.6 0.7 4.5
30-03-2019 20.3 (15:30) 10.9 (00:00) 15.6 18.61 (13:30) 13.33 (14:00) 0.4 0 0 0 0.4
29-03-2019 20.5 (13:10) 10.8 (00:00) 15.7 17.5 (18:00) 13.89 (18:00) 0 0 0 0 0
28-03-2019 20.6 (15:00) 9.8 (00:00) 15.2 16.11 (18:20) 11.11 (17:00) 0 0 0 0 0
27-03-2019 20.2 (14:30) 13.2 (00:00) 16.7 18.06 (06:30) 12.78 (15:00) 0 0 0 0 0

Gráficas

Temp. máximas Temp. mínimas Temp. medias Precipitaciones Rachas de viento máximas Velocidades máximas media en intervalos de 10 minutos

Datos horarios

Fecha y hora oficial Temperatura (ºC) Velocidad del viento (km/h) Dirección del viento Racha (km/h) Dirección de racha Precipitación (mm) Presión (hPa) Tendencia (hPa) Humedad (%)
2019-04-25 23:00:00 15.8 21 Sudoeste 45 Sudoeste 0 1015.4 3.4 92
2019-04-25 22:00:00 16.4 30 Oeste 63 Sudoeste 0 1014 2.2 83
2019-04-25 21:00:00 17.1 52 Sudoeste 67 Sudoeste 0 1012.5 1.1 79
2019-04-25 20:00:00 18.3 49 Sudoeste 68 Sudoeste 0 1012 0.7 70
2019-04-25 19:00:00 19.3 57 Sudoeste 74 Sudoeste 0 1011.8 -0.2 63
2019-04-25 18:00:00 20.5 55 Sudoeste 71 Sudoeste 0 1011.4 -0.8 56
2019-04-25 17:00:00 19.3 44 Sudoeste 54 Sudoeste 0 1011.3 -1.4 75
2019-04-25 16:00:00 18.9 42 Sudoeste 59 Sudoeste 0 1012 -0.9 81
2019-04-25 15:00:00 18.9 41 Sudoeste 54 Sudoeste 0 1012.2 -1.2 80
2019-04-25 14:00:00 17 31 Sudoeste 52 Sudoeste 0 1012.7 -0.6 91
2019-04-25 13:00:00 16.8 41 Sudoeste 52 Sudoeste 0 1012.9 0.1 90
2019-04-25 12:00:00 16.6 30 Sudoeste 37 Sudoeste 0 1013.4 1.3 91
2019-04-25 11:00:00 16.9 28 Sudoeste 39 Sudoeste 0 1013.3 1.7 89
2019-04-25 10:00:00 16.9 25 Sudoeste 45 Sudoeste 0 1012.8 1.6 88
2019-04-25 09:00:00 16.3 30 Sudoeste 45 Sudoeste 0 1012.1 1.3 87
2019-04-25 08:00:00 15.7 31 Sudoeste 42 Sudoeste 0.3 1011.6 1.1 91
2019-04-25 07:00:00 15.9 29 Sudoeste 46 Sudoeste 0 1011.2 1 86
2019-04-25 06:00:00 16 36 Sudoeste 55 Sudoeste 0 1010.8 0.6 90
2019-04-25 05:00:00 16.3 38 Sudoeste 52 Sudoeste 0 1010.5 -0.2 86
2019-04-25 04:00:00 17 40 Sudoeste 61 Sudoeste 0 1010.2 -0.6 69
2019-04-25 03:00:00 17 33 Sudoeste 50 Oeste 0 1010.2 -0.8 69
2019-04-25 02:00:00 17.4 29 Oeste 45 Oeste 0 1010.7 -0.3 61
2019-04-25 01:00:00 16.4 14 Oeste 33 Oeste 0 1010.8 0.6 67
2019-04-25 00:00:00 16.2 21 Oeste 41 Oeste 0 1011 1.3 72
2019-04-24 23:00:00 16.7 15 Sudoeste 37 Oeste 0 1011 1.9 67
2019-04-24 22:00:00 16.6 26 Sudoeste 45 Sudoeste 0 1010.2 1.2 70
2019-04-24 21:00:00 16.5 31 Sudoeste 61 Sudoeste 0 1009.7 0.9 80
2019-04-24 20:00:00 17.3 40 Sudoeste 58 Sudoeste 0 1009.1 0.3 73
2019-04-24 19:00:00 17.4 45 Sudoeste 67 Sudoeste 0 1009 -0.1 72
2019-04-24 18:00:00 17.8 49 Sudoeste 65 Sudoeste 0 1008.8 -0.5 68
2019-04-24 17:00:00 18.1 46 Sudoeste 68 Sudoeste 0 1008.8 -0.9 70
2019-04-24 16:00:00 18.3 49 Sudoeste 71 Sudoeste 0 1009.1 -1 67
2019-04-24 15:00:00 17.9 51 Sudoeste 72 Sudoeste 0 1009.3 -1.3 68
2019-04-24 14:00:00 18.5 52 Sudoeste 67 Sudoeste 0 1009.7 -0.4 63
2019-04-24 13:00:00 17.7 50 Sudoeste 63 Sudoeste 0 1010.1 0.6 68
2019-04-24 12:00:00 17.3 35 Sudoeste 48 Sudoeste 0 1010.6 1.8 67
2019-04-24 11:00:00 17 29 Sudoeste 41 Sudoeste 0 1010.1 2.2 64
2019-04-24 10:00:00 15.8 23 Sudoeste 33 Sudoeste 0 1009.5 2 61
2019-04-24 09:00:00 13.8 13 Noroeste 22 Sudoeste 0 1008.8 1.9 60
2019-04-24 08:00:00 12.2 14 Oeste 32 Oeste 0 1007.9 1.6 68
2019-04-24 07:00:00 12.1 8 Oeste 21 Sudoeste 0 1007.5 1.5 67
2019-04-24 06:00:00 12.9 12 Sudoeste 22 Oeste 0 1006.9 1.9 66
2019-04-24 05:00:00 13.2 13 Oeste 33 Oeste 0 1006.3 0.9 60
2019-04-24 04:00:00 12.9 8 Oeste 46 Sudoeste 0 1006 0.8 67
2019-04-24 03:00:00 14.2 33 Sudoeste 52 Oeste 0 1005 0.3 72
2019-04-24 02:00:00 14.4 35 Sudoeste 52 Sudoeste 0 1005.4 1.4 69
2019-04-24 01:00:00 14.5 26 Oeste 35 Oeste 0 1005.2 2.4 67
2019-04-24 00:00:00 14.2 22 Oeste 48 Sudoeste 0 1004.7 3 70
2019-04-23 23:00:00 15 36 Sudoeste 63 Oeste 0 1004 3.3 67
2019-04-23 22:00:00 15.4 46 Sudoeste 61 Oeste 0 1002.8 3.1 70
2019-04-23 21:00:00 15.4 46 Sudoeste 71 Oeste 0 1001.7 2.2 66
2019-04-23 20:00:00 15.9 51 Sudoeste 80 Sudoeste 0 1000.7 0.6 64
2019-04-23 19:00:00 16.8 52 Sudoeste 74 Sudoeste 0 999.7 -0.4 62
2019-04-23 18:00:00 16.6 46 Sudoeste 63 Sudoeste 0 999.5 -0.4 63
2019-04-23 17:00:00 16.3 39 Sudoeste 52 Sudoeste 0 1000.1 0.1 64
2019-04-23 16:00:00 17.5 29 Sudoeste 41 Sudoeste 0 1000.1 0.5 82
2019-04-23 15:00:00 15.6 29 Sudoeste 37 Sudoeste 0 999.9 0.5 89
2019-04-23 14:00:00 14.7 20 Sudoeste 46 Oeste 1.9 1000 1.3 90
2019-04-23 13:00:00 17.4 27 Sudoeste 52 Sudoeste 0 999.6 1.4 70
2019-04-23 12:00:00 18 37 Sudoeste 59 Oeste 0 999.4 1.9 68
2019-04-23 11:00:00 18.1 30 Sudoeste 42 Oeste 0 998.7 1.1 73
2019-04-23 10:00:00 18.1 32 Oeste 55 Oeste 0 998.2 0.8 67
2019-04-23 09:00:00 17.3 37 Oeste 54 Oeste 0 997.5 0.4 72
2019-04-23 08:00:00 16 28 Sudoeste 54 Sudoeste 0 997.6 0.1 84
2019-04-23 07:00:00 16 31 Oeste 67 Sudoeste 0 997.4 -0.6 84
2019-04-23 06:00:00 16.4 39 Sudoeste 54 Sudoeste 0 997.1 -1.5 80
2019-04-23 05:00:00 16.3 33 Sudoeste 52 Sudoeste 0 997.5 -1.7 83
2019-04-23 04:00:00 15.9 25 Oeste 37 Oeste 0 998 -1.3 88
2019-04-23 03:00:00 16 11 Oeste 21 Oeste 0 998.6 -1 90
2019-04-23 02:00:00 16 9 Sudoeste 13 Oeste 0 999.2 -0.4 90
2019-04-23 01:00:00 16.6 6 Norte 9 Norte 0 999.3 0 93
2019-04-23 00:00:00 17.2 0 Calma 8 Norte 0 999.6 0.3 93
2019-04-22 23:00:00 17.2 2 Nordeste 9 Sur 0 999.6 0.4 93
2019-04-22 22:00:00 17.5 9 Sur 15 Sudoeste 0 999.3 0.1 92
2019-04-22 21:00:00 17.7 5 Sudeste 11 Este 0 999.3 0.1 84
2019-04-22 20:00:00 17.6 6 Este 9 Este 0 999.2 -0.1 79
2019-04-22 19:00:00 18.3 7 Sudeste 18 Sur 0 999.2 -0.5 77
2019-04-22 18:00:00 19.2 12 Sur 18 Sur 0 999.2 -0.7 71
2019-04-22 17:00:00 19.8 13 Sur 18 Sur 0 999.3 -0.8 62
2019-04-22 16:00:00 19.1 14 Sudoeste 21 Sudoeste 0 999.7 -0.6 70
2019-04-22 15:00:00 19.3 15 Sudoeste 21 Sudoeste 0 999.9 -0.4 71
2019-04-22 14:00:00 18.4 13 Sudoeste 22 Sudoeste 0 1000.1 -0.2 77
2019-04-22 13:00:00 18.8 15 Sur 18 Sur 0 1000.3 0.3 75
2019-04-22 12:00:00 17.7 10 Sur 21 Sur 0 1000.3 0.2 80
2019-04-22 11:00:00 18.7 10 Sudoeste 17 Sur 0 1000.3 0.7 72
2019-04-22 10:00:00 15.9 11 Este 15 Este 0 1000 0.4 88
2019-04-22 09:00:00 14.9 8 Este 15 Nordeste 0 1000.1 0.1 87
2019-04-22 08:00:00 13.8 10 Norte 15 Norte 0 999.6 -0.9 95
2019-04-22 07:00:00 14.1 6 Noroeste 9 Norte 0 999.6 -1.2 96
2019-04-22 06:00:00 14.1 8 Norte 11 Norte 0 1000 -1.5 93
2019-04-22 05:00:00 13.7 5 Nordeste 9 Nordeste 0 1000.5 -1.6 97
2019-04-22 04:00:00 14 7 Norte 9 Norte 0 1000.8 -2 97
2019-04-22 03:00:00 14.3 4 Norte 11 Noroeste 0 1001.5 -1.6 95
2019-04-22 02:00:00 13.7 7 Norte 11 Norte 0 1002.1 -1.4 98
2019-04-22 01:00:00 14.9 8 Nordeste 11 Norte 0 1002.8 -0.5 97
2019-04-22 00:00:00 15.5 3 Sudoeste 8 Sudoeste 0 1003.1 0.2 93
2019-04-21 23:00:00 15.6 5 Oeste 15 Sudoeste 0 1003.5 0.6 92
2019-04-21 22:00:00 15.8 10 Sudoeste 18 Sudoeste 0 1003.3 0.4 92
2019-04-21 21:00:00 15.9 12 Sudoeste 21 Sudoeste 0 1002.9 -0.1 92
2019-04-21 20:00:00 16.2 13 Sudoeste 26 Sudoeste 0 1002.9 -0.2 86
2019-04-21 19:00:00 17.2 18 Sudoeste 28 Oeste 0 1002.9 -0.7 82
2019-04-21 18:00:00 17.1 22 Sudoeste 30 Sudoeste 0 1003 -1 84
2019-04-21 17:00:00 16.4 21 Oeste 28 Oeste 0 1003.1 -1.3 88
2019-04-21 16:00:00 16 14 Sudoeste 22 Sudoeste 0 1003.6 -1.4 86
2019-04-21 15:00:00 16.1 9 Sudoeste 18 Sudoeste 0 1004 -1.3 87
2019-04-21 14:00:00 15.2 6 Oeste 13 Oeste 0.1 1004.4 -0.9 87
2019-04-21 13:00:00 14.8 9 Sudoeste 17 Sudoeste 0.9 1005 -0.2 91
2019-04-21 12:00:00 14.3 9 Sudoeste 11 Sudoeste 0.7 1005.3 -0.3 93
2019-04-21 11:00:00 14.2 5 Sur 13 Oeste 0.7 1005.3 -0.4 91
2019-04-21 10:00:00 13.8 7 Oeste 13 Oeste 1.4 1005.2 -0.3 95
2019-04-21 09:00:00 13.6 11 Sudoeste 15 Oeste 4.6 1005.6 -0.1 99
2019-04-21 08:00:00 14.4 12 Sudoeste 17 Sur 2.4 1005.7 -0.4 95
2019-04-21 07:00:00 14.7 10 Sudoeste 15 Sudoeste 0 1005.5 -1.1 94
2019-04-21 06:00:00 14.9 6 Oeste 13 Sudoeste 0.1 1005.7 -1.7 85
2019-04-21 05:00:00 15.3 7 Sudoeste 24 Norte 0.4 1006.1 -2.2 85
2019-04-21 04:00:00 15.2 5 Norte 15 Norte 0.5 1006.6 -2.3 84
2019-04-21 03:00:00 16.3 12 Norte 26 Nordeste 0 1007.4 -2.1 72
2019-04-21 02:00:00 15.9 14 Nordeste 24 Nordeste 0 1008.3 -1.7 76
2019-04-21 01:00:00 16.1 11 Nordeste 24 Nordeste 0 1008.9 -1.2 76
2019-04-21 00:00:00 15.7 14 Nordeste 24 Nordeste 0 1009.5 -0.4 81
2019-04-20 23:00:00 14.7 14 Nordeste 30 Nordeste 0 1010 0.2 93
2019-04-20 22:00:00 15.7 23 Nordeste 42 Nordeste 0 1010.1 0.4 82
2019-04-20 21:00:00 16.1 15 Nordeste 28 Norte 0 1009.9 0.6 83
2019-04-20 20:00:00 15.4 7 Oeste 15 Este 4 1009.8 0.8 85
2019-04-20 19:00:00 17.1 5 Sur 15 Sur 0 1009.7 0.9 74
2019-04-20 18:00:00 18.1 12 Sur 18 Sudoeste 0 1009.3 0.6 73
2019-04-20 17:00:00 18.5 13 Sur 28 Sur 0 1009 0.5 71
2019-04-20 16:00:00 18.5 23 Sur 28 Sudeste 0 1008.8 -0.5 74
2019-04-20 15:00:00 19.9 8 Sur 22 Noroeste 0 1008.7 -1.2 60
2019-04-20 14:00:00 18.3 9 Noroeste 17 Noroeste 0 1008.5 -0.9 68
2019-04-20 13:00:00 15.8 5 Nordeste 13 Sudoeste 0.1 1009.3 0.2 86
2019-04-20 12:00:00 14.1 9 Sudoeste 26 Sudoeste 0.6 1009.9 1 93
2019-04-20 11:00:00 14.2 11 Sudoeste 18 Oeste 1.8 1009.4 1 96
2019-04-20 10:00:00 13.9 13 Oeste 22 Oeste 1.8 1009.1 1.6 96
2019-04-20 09:00:00 14.1 13 Oeste 17 Oeste 2.9 1008.9 0.9 97
2019-04-20 08:00:00 14 6 Oeste 17 Oeste 1.4 1008.4 -0.6 95
2019-04-20 07:00:00 13.6 12 Oeste 18 Noroeste 0.5 1007.5 -2.3 94
2019-04-20 06:00:00 14 5 Noroeste 13 Norte 0.2 1008 -2.9 94
2019-04-20 05:00:00 14.2 8 Norte 11 Norte 0 1009 -2.9 91
2019-04-20 04:00:00 14.1 8 Noroeste 13 Noroeste 0 1009.8 -2.4 89
2019-04-20 03:00:00 14 5 Norte 9 Norte 0 1010.9 -2 92
2019-04-20 02:00:00 13.8 8 Norte 11 Nordeste 0 1011.9 -1.4 91
2019-04-20 01:00:00 13.3 9 Noroeste 11 Noroeste 0 1012.2 -0.3 93
2019-04-20 00:00:00 14 8 Norte 11 Norte 0 1012.9 0.5 91
2019-04-19 23:00:00 15 8 Nordeste 13 Nordeste 0 1013.3 1.2 88
2019-04-19 22:00:00 15.6 5 Sudeste 9 Sur 0 1012.5 0.4 86
2019-04-19 21:00:00 16 5 Sur 11 Sur 0 1012.4 0.6 76
2019-04-19 20:00:00 17.2 8 Sur 11 Sur 0 1012.1 0.4 73
2019-04-19 19:00:00 17.2 9 Sur 18 Sudeste 0 1012.1 0.1 70
2019-04-19 18:00:00 18 13 Sudeste 21 Sudeste 0 1011.8 -0.6 69
2019-04-19 17:00:00 18.1 14 Sudeste 24 Este 0 1011.7 -0.8 72
2019-04-19 16:00:00 19.6 13 Sudeste 22 Sur 0 1012 -0.6 65
2019-04-19 15:00:00 19.4 12 Sur 18 Sur 0 1012.4 -0.3 65
2019-04-19 14:00:00 18.8 15 Sur 24 Sur 0 1012.5 0.3 67
2019-04-19 13:00:00 17.8 17 Sur 21 Sur 0 1012.6 0.2 75
2019-04-19 12:00:00 17.9 14 Este 22 Este 0 1012.7 0.7 65
2019-04-19 11:00:00 17.6 13 Nordeste 22 Norte 0 1012.2 0.7 66
2019-04-19 10:00:00 15 8 Nordeste 22 Nordeste 0 1012.4 1.7 77
2019-04-19 09:00:00 13.2 15 Noroeste 24 Noroeste 0 1012 1.1 82
2019-04-19 08:00:00 13 13 Noroeste 21 Noroeste 0 1011.5 0.3 86
2019-04-19 07:00:00 13.7 10 Norte 18 Nordeste 0 1010.7 -0.7 91
2019-04-19 06:00:00 13.7 12 Nordeste 17 Este 0 1010.9 -0.7 93
2019-04-19 05:00:00 14 8 Nordeste 13 Nordeste 0 1011.2 -0.5 95
2019-04-19 04:00:00 13.9 8 Nordeste 18 Este 0 1011.4 -0.3 95
2019-04-19 03:00:00 13.5 14 Este 18 Este 0 1011.6 0.3 94
2019-04-19 02:00:00 14.7 6 Oeste 17 Oeste 0 1011.7 1 88
2019-04-19 01:00:00 14.5 4 Oeste 18 Sudoeste 0 1011.7 1.2 87
2019-04-19 00:00:00 15 13 Sudoeste 39 Oeste 0 1011.3 1.7 87
2019-04-18 23:00:00 15.1 28 Oeste 46 Sudoeste 0 1010.7 1.3 85
2019-04-18 22:00:00 15.1 19 Sudoeste 42 Sudoeste 0 1010.5 1.6 89
2019-04-18 21:00:00 15.6 30 Sudoeste 42 Sudoeste 0 1009.6 -0.4 85
2019-04-18 20:00:00 17 23 Sudoeste 32 Sudoeste 0 1009.4 -0.5 78
2019-04-18 19:00:00 17.1 22 Sudoeste 32 Sudoeste 0 1008.9 -1.4 87
2019-04-18 18:00:00 15.9 13 Sur 24 Sur 0 1010 -1.1 88
2019-04-18 17:00:00 16.1 11 Sur 22 Sudoeste 0 1009.9 -0.2 85
2019-04-18 16:00:00 14.5 13 Sudoeste 18 Sudoeste 0 1010.3 -1 93
2019-04-18 15:00:00 13.9 0 Calma 21 Oeste 0 1011.1 0.3 84
2019-04-18 14:00:00 12.9 18 Norte 37 Noroeste 2.8 1010.1 -0.5 89
2019-04-18 13:00:00 12.3 27 Noroeste 48 Noroeste 3.1 1011.3 1.1 89
2019-04-18 12:00:00 12.5 35 Noroeste 54 Noroeste 2.7 1010.8 0.9 88
2019-04-18 11:00:00 15.1 15 Sudoeste 42 Sudoeste 0 1010.6 0.6 93
2019-04-18 10:00:00 16.5 12 Sudeste 15 Sudeste 0 1010.2 0 95
2019-04-18 09:00:00 16 5 Este 8 Nordeste 0 1009.9 -0.5 92
2019-04-18 08:00:00 15.7 3 Oeste 9 Sur 0 1010 0.5 94
2019-04-18 07:00:00 15.9 7 Sur 11 Sur 0 1010.2 0.3 94
2019-04-18 06:00:00 15.7 5 Sudeste 18 Sudeste 0 1010.4 -0.3 94
2019-04-18 05:00:00 15.5 12 Este 18 Este 0 1009.5 -1.4 89
2019-04-18 04:00:00 16.3 4 Nordeste 37 Oeste 0 1009.9 -0.4 85
2019-04-18 03:00:00 16.7 24 Sudoeste 33 Oeste 0 1010.7 0.2 85
2019-04-18 02:00:00 17.4 14 Oeste 33 Oeste 0 1010.9 -0.3 79
2019-04-18 01:00:00 17.4 10 Oeste 18 Sur 0 1010.3 -0.5 82
2019-04-18 00:00:00 18.4 11 Nordeste 26 Sudoeste 0 1010.5 2 74
2019-04-17 23:00:00 18.1 13 Sudoeste 55 Oeste 0 1011.2 5.1 76
2019-04-17 22:00:00 17.7 35 Oeste 65 Oeste 0 1010.8 5 80
2019-04-17 21:00:00 19.6 36 Sudoeste 59 Este 0 1008.5 2.5 65
2019-04-17 20:00:00 21.9 43 Este 63 Este 0 1006.1 -1.3 44
2019-04-17 19:00:00 23.6 42 Este 59 Este 0 1005.8 -2.6 41
2019-04-17 18:00:00 24.6 39 Este 55 Este 0 1006 -3.5 40
2019-04-17 17:00:00 23.8 39 Este 50 Este 0 1007.4 -3.1 50
2019-04-17 16:00:00 25.6 37 Nordeste 55 Este 0 1008.4 -3.3 43
2019-04-17 15:00:00 25.7 38 Este 52 Este 0 1009.5 -3 41
2019-04-17 14:00:00 25.6 37 Este 52 Nordeste 0 1010.5 -2.4 39
2019-04-17 13:00:00 24.7 39 Nordeste 52 Nordeste 0 1011.7 -1.2 40
2019-04-17 12:00:00 23.6 32 Nordeste 41 Nordeste 0 1012.5 -0.7 41
2019-04-17 11:00:00 21.6 9 Noroeste 18 Norte 0 1012.9 -0.4 46
2019-04-17 10:00:00 19.5 9 Norte 26 Norte 0 1012.9 -0.3 52
2019-04-17 09:00:00 17.1 14 Noroeste 30 Noroeste 0 1013.2 0.3 62
2019-04-17 08:00:00 13.8 11 Nordeste 22 Norte 0 1013.3 0.1 72
2019-04-17 07:00:00 15.3 5 Norte 26 Noroeste 0 1013.2 -0.6 71
2019-04-17 06:00:00 16.3 19 Noroeste 35 Noroeste 0 1012.9 -1.6 68
2019-04-17 05:00:00 16.2 19 Norte 39 Noroeste 0 1013.2 -1.7 70
2019-04-17 04:00:00 16.4 16 Noroeste 28 Noroeste 0 1013.8 -1.2 69
2019-04-17 03:00:00 16.2 11 Nordeste 18 Norte 0 1014.5 -0.5 71
2019-04-17 02:00:00 16.5 10 Norte 18 Norte 0 1014.9 -0.1 69
2019-04-17 01:00:00 17 19 Nordeste 33 Este 0 1015 0.6 68
2019-04-17 00:00:00 17.3 19 Nordeste 37 Nordeste 0 1015 1.5 65
2019-04-16 23:00:00 17.1 24 Este 41 Nordeste 0 1015 1.9 71
2019-04-16 22:00:00 17.7 27 Este 42 Este 0 1014.4 1.2 78
2019-04-16 21:00:00 19.1 31 Este 46 Nordeste 0 1013.5 0.1 63
2019-04-16 20:00:00 22.6 30 Nordeste 39 Este 0 1013.1 -0.8 34
2019-04-16 19:00:00 24.1 23 Este 32 Este 0 1013.2 -1.3 29
2019-04-16 18:00:00 20.5 7 Sudoeste 17 Sudoeste 0 1013.4 -2.1 72
2019-04-16 17:00:00 19.9 10 Sur 18 Sur 0 1013.9 -2.2 75
2019-04-16 16:00:00 20 9 Sur 15 Sur 0 1014.5 -1.9 75
2019-04-16 15:00:00 19.7 10 Sur 21 Sur 0 1015.5 -1.2 76
2019-04-16 14:00:00 19.2 12 Sudoeste 21 Sur 0 1016.1 -0.2 77
2019-04-16 13:00:00 19 12 Sur 18 Sur 0 1016.4 0.8 78
2019-04-16 12:00:00 18.9 15 Sur 26 Sudeste 0 1016.7 1.3 79
2019-04-16 11:00:00 19.1 20 Sudeste 32 Sudeste 0 1016.3 1.5 78
2019-04-16 10:00:00 20.5 9 Nordeste 18 Nordeste 0 1015.6 1.2 57
2019-04-16 09:00:00 16.2 11 Este 15 Este 0 1015.4 1.3 87
2019-04-16 08:00:00 14.1 6 Norte 15 Norte 0 1014.8 0.9 88
2019-04-16 07:00:00 14.1 9 Norte 15 Nordeste 0 1014.4 0.9 96
2019-04-16 06:00:00 13.7 9 Nordeste 13 Este 0 1014.1 0.6 94
2019-04-16 05:00:00 14.4 10 Este 13 Este 0 1013.9 0.3 90
2019-04-16 04:00:00 14.1 9 Este 13 Este 0 1013.5 0.4 84
2019-04-16 03:00:00 14.8 8 Nordeste 11 Nordeste 0 1013.5 0.8 84
2019-04-16 02:00:00 15.9 6 Nordeste 13 Nordeste 0 1013.6 1.3 79
2019-04-16 01:00:00 15.9 8 Noroeste 24 Oeste 0 1013.1 0.9 80
2019-04-16 00:00:00 17.7 5 Sudoeste 30 Sudoeste 0 1012.7 1.2 74
2019-04-15 23:00:00 17.6 12 Sur 26 Sudoeste 0 1012.3 1 80
2019-04-15 22:00:00 17.9 6 Sur 26 Sur 0 1012.2 1.5 79
2019-04-15 21:00:00 18.7 16 Sur 24 Sur 0 1011.5 1.1 70
2019-04-15 20:00:00 20.6 18 Sur 37 Sudoeste 0 1011.3 0.9 42
2019-04-15 19:00:00 21 12 Sur 24 Sur 0 1010.7 0.1 48
2019-04-15 18:00:00 21.5 7 Sudeste 15 Sudeste 0 1010.4 -0.4 52
2019-04-15 17:00:00 21.8 9 Sur 15 Sudoeste 0 1010.4 -0.9 53
2019-04-15 16:00:00 20.9 10 Sur 15 Sur 0 1010.6 -1 72
2019-04-15 15:00:00 20.8 10 Sudeste 15 Sudeste 0 1010.8 -1 68
2019-04-15 14:00:00 22.4 12 Sur 15 Sur 0 1011.3 -0.3 61
2019-04-15 13:00:00 23.6 10 Sudoeste 13 Sudoeste 0 1011.6 0 33
2019-04-15 12:00:00 22.7 8 Sur 11 Sur 0 1011.8 0.5 40
2019-04-15 11:00:00 22.3 5 Sudoeste 13 Noroeste 0 1011.6 0.2 44
2019-04-15 10:00:00 18.1 5 Sudeste 11 Sur 0 1011.6 0.3 78
2019-04-15 09:00:00 17.2 4 Nordeste 9 Norte 0 1011.3 -0.2 72
2019-04-15 08:00:00 13.4 3 Nordeste 8 Nordeste 0 1011.4 -0.4 92
2019-04-15 07:00:00 13.7 4 Norte -- -- 0 1011.3 -0.8 92
2019-04-15 06:00:00 13.6 9 Norte 11 Norte 0 1011.5 -1.2 93
2019-04-15 05:00:00 14.9 3 Norte 11 Norte 0 1011.8 -1.5 94
2019-04-15 04:00:00 14.8 6 Nordeste 9 Nordeste 0 1012.1 -1.4 94
2019-04-15 03:00:00 15.1 5 Nordeste 9 Nordeste 0 1012.7 -0.7 94
2019-04-15 02:00:00 15.8 4 Nordeste 5 Nordeste 0 1013.3 0 96
2019-04-15 01:00:00 16.3 0 Calma 5 Sur 0 1013.5 0.2 96
2019-04-15 00:00:00 16.5 -- -- -- -- 0 1013.4 0.5 94
2019-04-14 23:00:00 16.9 4 Norte 8 Norte 0 1013.3 0.7 92
2019-04-14 22:00:00 17.1 6 Sudeste 9 Sudeste 0 1013.3 0.8 92
2019-04-14 21:00:00 17.5 4 Este 11 Sudeste 0 1012.9 0.1 87
2019-04-14 20:00:00 18.7 6 Sudeste 15 Sudeste 0 1012.6 -0.7 79
2019-04-14 19:00:00 19.5 6 Sudeste 17 Sudeste 0 1012.5 -1.7 73
2019-04-14 18:00:00 19.5 9 Sudeste 15 Sur 0 1012.8 -2.1 81
2019-04-14 17:00:00 19.4 8 Sur 17 Sur 0 1013.3 -1.9 80
2019-04-14 16:00:00 19.7 12 Sur 18 Sur 0 1014.2 -1.5 79
2019-04-14 15:00:00 19.8 12 Sur 17 Sur 0 1014.9 -1 79
2019-04-14 14:00:00 19.1 10 Sur 17 Sur 0 1015.2 -0.9 82
2019-04-14 13:00:00 18.9 12 Sur 17 Sudoeste 0 1015.7 -0.1 81
2019-04-14 12:00:00 18.8 10 Sur 15 Sur 0 1015.9 0.1 74
2019-04-14 11:00:00 18.5 7 Sur 11 Sudeste 0 1016.1 0.6 70
2019-04-14 10:00:00 17.5 7 Sur 17 Noroeste 0 1015.8 0.5 73
2019-04-14 09:00:00 15.4 5 Noroeste 13 Norte 0 1015.8 0.8 48
2019-04-14 08:00:00 12.2 10 Norte 13 Norte 0 1015.5 0.3 66
2019-04-14 07:00:00 12 9 Norte 11 Norte 0 1015.3 -0.3 65
2019-04-14 06:00:00 12.2 7 Norte 9 Norte 0 1015 -0.8 74
2019-04-14 05:00:00 12 3 Noroeste 11 Norte 0 1015.2 -1.2 80
2019-04-14 04:00:00 12.9 5 Norte 9 Este 0 1015.6 -1.1 78
2019-04-14 03:00:00 13 5 Norte 8 Norte 0 1015.8 -0.7 77
2019-04-14 02:00:00 13.1 5 Noroeste 13 Noroeste 0 1016.4 -0.2 81
2019-04-14 01:00:00 13.8 9 Norte 13 Norte 0 1016.7 0.7 83
2019-04-14 00:00:00 14.5 2 Noroeste 9 Oeste 0 1016.5 1.1 87
2019-04-13 23:00:00 15.6 3 Oeste 9 Sudoeste 0 1016.6 1.6 81
2019-04-13 22:00:00 16 5 Sudoeste 18 Sur 0 1016 1.2 83
2019-04-13 21:00:00 16.7 9 Sudeste 18 Sudoeste 0 1015.4 0.5 83
2019-04-13 20:00:00 18.5 13 Sudoeste 28 Sudoeste 0 1015 0 67
2019-04-13 19:00:00 19.4 19 Sur 28 Sur 0 1014.8 -0.7 60
2019-04-13 18:00:00 19.2 18 Sur 26 Sur 0 1014.9 -1 75
2019-04-13 17:00:00 19.4 10 Sur 22 Sur 0 1015 -1.1 76
2019-04-13 16:00:00 19.5 14 Sur 22 Sur 0 1015.5 -0.8 79
2019-04-13 15:00:00 19.4 14 Sudoeste 22 Sudoeste 0 1015.9 -0.7 77
2019-04-13 14:00:00 19.7 16 Sudoeste 24 Sudoeste 0 1016.1 -0.3 66
2019-04-13 13:00:00 19 16 Sudoeste 24 Sudoeste 0 1016.3 0.2 71
2019-04-13 12:00:00 18.3 20 Sudoeste 26 Sudoeste 0 1016.6 0.8 77
2019-04-13 11:00:00 17.5 15 Sudoeste 18 Sudoeste 0 1016.4 0.9 78
2019-04-13 10:00:00 16.9 9 Sur 15 Oeste 0 1016.1 1 73
2019-04-13 09:00:00 15.1 2 Noroeste 18 Noroeste 0 1015.8 1 42
2019-04-13 08:00:00 12 10 Noroeste 17 Norte 0 1015.5 0.7 50
2019-04-13 07:00:00 12.4 13 Noroeste 17 Noroeste 0 1015.1 -0.1 50
2019-04-13 06:00:00 11.1 5 Norte 13 Oeste 0 1014.8 -0.6 81
2019-04-13 05:00:00 11.7 8 Norte 13 Norte 0 1014.8 -0.8 76
2019-04-13 04:00:00 12.5 9 Norte 13 Norte 0 1015.2 -0.2 65
2019-04-13 03:00:00 12.7 4 Noroeste 11 Norte 0 1015.4 0.4 75
2019-04-13 02:00:00 13.3 9 Nordeste 13 Nordeste 0 1015.6 0.8 72
2019-04-13 01:00:00 13.5 6 Nordeste 13 Nordeste 0 1015.4 1.2 72
2019-04-13 00:00:00 15 7 Noroeste 13 Noroeste 0 1015 1.3 68
2019-04-12 23:00:00 15.4 6 Norte 11 Oeste 0 1014.8 1.4 73
2019-04-12 22:00:00 16.1 8 Sudoeste 13 Sudoeste 0 1014.2 0.8 70
2019-04-12 21:00:00 16.7 3 Sudeste 11 Sur 0 1013.7 0.2 76
2019-04-12 20:00:00 18.3 9 Sur 17 Sur 0 1013.4 -0.3 66
2019-04-12 19:00:00 19.1 13 Sur 18 Sur 0 1013.4 -0.8 61
2019-04-12 18:00:00 20.1 11 Sur 17 Sudoeste 0 1013.5 -1.1 57
2019-04-12 17:00:00 20.4 9 Sur 17 Sur 0 1013.7 -1.3 53
2019-04-12 16:00:00 20.1 10 Sudoeste 21 Sudoeste 0 1014.2 -1 56
2019-04-12 15:00:00 19.7 14 Sudoeste 21 Sudoeste 0 1014.6 -0.7 57
2019-04-12 14:00:00 19.1 17 Sudoeste 24 Sur 0 1015 0.1 70
2019-04-12 13:00:00 18.5 12 Sur 18 Sur 0 1015.2 0.5 70
2019-04-12 12:00:00 18.2 14 Sur 22 Sudoeste 0 1015.3 0.7 68
2019-04-12 11:00:00 18.4 17 Sudoeste 24 Sudoeste 0 1014.9 1 60
2019-04-12 10:00:00 18.7 4 Este 13 Noroeste 0 1014.7 1.4 32
2019-04-12 09:00:00 15.6 10 Noroeste 22 Norte 0 1014.6 1.4 37
2019-04-12 08:00:00 15.1 5 Norte 35 Noroeste 0 1013.9 0.3 35
2019-04-12 07:00:00 16 20 Noroeste 33 Noroeste 0 1013.3 -0.5 37
2019-04-12 06:00:00 14.3 10 Norte 17 Norte 0 1013.2 -1 46
2019-04-12 05:00:00 13.9 7 Nordeste 21 Nordeste 0 1013.6 -1 68
2019-04-12 04:00:00 14.2 14 Nordeste 22 Este 0 1013.8 -0.7 81
2019-04-12 03:00:00 14.5 9 Este 15 Este 0 1014.2 -0.5 87
2019-04-12 02:00:00 14.9 9 Este 17 Este 0 1014.6 0.2 85
2019-04-12 01:00:00 15 9 Nordeste 13 Nordeste 0 1014.5 0.5 86
2019-04-12 00:00:00 14.8 8 Nordeste 13 Este 0 1014.7 1.3 84
2019-04-11 23:00:00 14.9 5 Nordeste 9 Este 0 1014.4 1.6 87
2019-04-11 22:00:00 14.9 7 Este 11 Sudeste 0 1014 1.3 88
2019-04-11 21:00:00 15.7 11 Este 15 Este 0 1013.4 0.6 83
2019-04-11 20:00:00 17 12 Sudeste 21 Sur 0 1012.8 -0.1 78
2019-04-11 19:00:00 18 14 Sur 26 Sur 0 1012.7 -0.5 71
2019-04-11 18:00:00 18.3 12 Sur 24 Sur 0 1012.8 -1.1 67
2019-04-11 17:00:00 18.5 11 Sur 17 Sur 0 1012.9 -1.2 64
2019-04-11 16:00:00 18.8 12 Sur 17 Sur 0 1013.2 -1.1 64
2019-04-11 15:00:00 18.7 14 Sur 26 Sudoeste 0 1013.9 -0.2 69
2019-04-11 14:00:00 18.3 21 Sudoeste 37 Sudoeste 0 1014.1 0.2 71
2019-04-11 13:00:00 18.5 20 Sudoeste 33 Sudoeste 0 1014.3 0.5 64
2019-04-11 12:00:00 18.3 20 Sudoeste 30 Sudoeste 0 1014.1 0.5 67
2019-04-11 11:00:00 18.6 21 Sudoeste 28 Sudoeste 0 1013.9 0.9 51
2019-04-11 10:00:00 19 9 Oeste 30 Oeste 0 1013.8 1.3 36
2019-04-11 09:00:00 16.9 13 Oeste 22 Noroeste 0 1013.6 0.9 42
2019-04-11 08:00:00 14.8 8 Noroeste 39 Norte 0 1013 0.2 47
2019-04-11 07:00:00 16 26 Norte 46 Noroeste 0 1012.5 -0.4 43
2019-04-11 06:00:00 15.9 26 Norte 42 Norte 0 1012.7 -0.1 44
2019-04-11 05:00:00 15.6 24 Noroeste 42 Noroeste 0 1012.8 -0.5 45
2019-04-11 04:00:00 15.7 20 Noroeste 42 Norte 0 1012.9 -0.4 46
2019-04-11 03:00:00 15.9 31 Noroeste 41 Noroeste 0 1012.8 -0.4 46
2019-04-11 02:00:00 15.4 20 Noroeste 37 Noroeste 0 1013.3 0.7 47
2019-04-11 01:00:00 15 21 Noroeste 33 Noroeste 0 1013.3 1.6 48
2019-04-11 00:00:00 16.2 20 Noroeste 61 Norte 0 1013.2 2.5 44
2019-04-10 23:00:00 18.3 31 Noroeste 58 Noroeste 0 1012.6 2.7 36
2019-04-10 22:00:00 18.5 28 Norte 45 Norte 0 1011.7 2.3 34
2019-04-10 21:00:00 19 28 Noroeste 54 Noroeste 0 1010.7 1.3 31
2019-04-10 20:00:00 20.1 37 Noroeste 52 Noroeste 0 1009.9 0.5 26
2019-04-10 19:00:00 21.3 33 Noroeste 50 Noroeste 0 1009.4 -0.3 23
2019-04-10 18:00:00 17.7 26 Sudoeste 37 Sudoeste 0 1009.4 -0.7 68
2019-04-10 17:00:00 17.5 21 Sur 35 Sudoeste 0 1009.4 -1.1 68
2019-04-10 16:00:00 18.3 28 Sudoeste 39 Sudoeste 0 1009.7 -1.2 59
2019-04-10 15:00:00 19.2 26 Sudoeste 37 Sudoeste 0 1010.1 -1.4 57
2019-04-10 14:00:00 18.5 20 Sudoeste 30 Sudeste 0 1010.5 -1.3 59
2019-04-10 13:00:00 18.3 20 Sudeste 30 Sudeste 0 1010.9 -1.2 65
2019-04-10 12:00:00 19.9 14 Sudeste 21 Sudeste 0 1011.5 -0.8 46
2019-04-10 11:00:00 18.1 13 Sudeste 18 Sudeste 0 1011.8 0.1 55
2019-04-10 10:00:00 17.7 9 Norte 15 Norte 0 1012.1 1 50
2019-04-10 09:00:00 16.5 8 Sudoeste 26 Oeste 0 1012.3 1.8 58
2019-04-10 08:00:00 13.3 13 Noroeste 24 Oeste 0 1011.7 1 59
2019-04-10 07:00:00 15.2 14 Oeste 58 Noroeste 0 1011.1 0 50
2019-04-10 06:00:00 16.5 39 Noroeste 58 Noroeste 0 1010.5 -1.3 45
2019-04-10 05:00:00 16.5 34 Noroeste 61 Norte 0 1010.7 -1.8 45
2019-04-10 04:00:00 14.5 4 Nordeste 18 Sur 0 1011.1 -1.4 58
2019-04-10 03:00:00 13.4 5 Sur 15 Norte 0 1011.8 -0.6 80
2019-04-10 02:00:00 13.7 6 Sudoeste 18 Oeste 0 1012.5 0.3 83
2019-04-10 01:00:00 14.2 14 Sudoeste 18 Sudoeste 0 1012.5 0.5 89
2019-04-10 00:00:00 13.4 10 Este 21 Este 0 1012.4 1 89
2019-04-09 23:00:00 14.1 11 Nordeste 17 Oeste 0 1012.2 1.3 83
2019-04-09 22:00:00 15.4 14 Oeste 45 Sudoeste 0 1012 1.1 79
2019-04-09 21:00:00 16.2 32 Sudoeste 58 Sudoeste 0 1011.4 0.8 75
2019-04-09 20:00:00 16.9 45 Sudoeste 67 Oeste 0 1010.9 0 69
2019-04-09 19:00:00 17.7 45 Sudoeste 67 Oeste 0 1010.9 -0.5 65
2019-04-09 18:00:00 19 48 Sudoeste 71 Sudoeste 0 1010.6 -1.1 58
2019-04-09 17:00:00 19.1 49 Sudoeste 72 Sudoeste 0 1010.9 -1.4 58
2019-04-09 16:00:00 19.6 46 Sudoeste 67 Sudoeste 0 1011.4 -1.5 52
2019-04-09 15:00:00 19.5 37 Sudoeste 50 Sudoeste 0 1011.7 -1.8 54
2019-04-09 14:00:00 19.4 18 Sudoeste 30 Sudoeste 0 1012.3 -1.1 49
2019-04-09 13:00:00 18.1 16 Sudoeste 26 Sudoeste 0 1012.9 -0.2 63
2019-04-09 12:00:00 17.6 20 Sudoeste 26 Sudoeste 0 1013.5 0.6 65
2019-04-09 11:00:00 16.8 18 Sudoeste 26 Sudoeste 0 1013.4 1 67
2019-04-09 10:00:00 17.2 14 Sur 21 Sur 0 1013.1 1 56
2019-04-09 09:00:00 15.8 3 Sudeste 11 Este 0 1012.9 0.9 65
2019-04-09 08:00:00 13.2 5 Sudeste 13 Sur 0 1012.4 0.5 85
2019-04-09 07:00:00 13.3 5 Sudoeste 13 Sur 0 1012.1 0.3 90
2019-04-09 06:00:00 13.8 12 Sudoeste 21 Sudoeste 0 1012 0.4 91
2019-04-09 05:00:00 14.2 18 Sudoeste 41 Sudoeste 0 1011.9 0.1 93
2019-04-09 04:00:00 14.6 19 Oeste 45 Sudoeste 0 1011.8 0 87
2019-04-09 03:00:00 15.2 35 Sudoeste 46 Sudoeste 0 1011.6 0 84
2019-04-09 02:00:00 15.2 19 Sudoeste 46 Sudoeste 0 1011.8 0.2 86
2019-04-09 01:00:00 15.5 30 Sudoeste 42 Sudoeste 0 1011.8 0.5 86
2019-04-09 00:00:00 15.9 24 Sudoeste 39 Oeste 0 1011.6 0.9 82
2019-04-08 23:00:00 16.1 29 Sudoeste 50 Sudoeste 0 1011.6 1.3 82
2019-04-08 22:00:00 16.8 35 Sudoeste 46 Oeste 0 1011.3 1.2 75
2019-04-08 21:00:00 16.6 37 Sudoeste 61 Sudoeste 0 1010.7 0.5 82
2019-04-08 20:00:00 17.5 38 Sudoeste 58 Oeste 0 1010.3 -0.3 77
2019-04-08 19:00:00 19.3 44 Sudoeste 65 Sudoeste 0 1010.1 -1.2 66
2019-04-08 18:00:00 19.3 46 Sudoeste 68 Sudoeste 0 1010.2 -1.8 70
2019-04-08 17:00:00 20 45 Sudoeste 63 Sudoeste 0 1010.6 -2.1 66
2019-04-08 16:00:00 20.1 49 Sudoeste 65 Sudoeste 0 1011.3 -1.8 63
2019-04-08 15:00:00 19.3 37 Sudoeste 61 Sudoeste 0 1012 -1.1 67
2019-04-08 14:00:00 19.3 36 Sudoeste 50 Sudoeste 0 1012.7 -0.2 68
2019-04-08 13:00:00 19.2 40 Sudoeste 58 Sudoeste 0 1013.1 -0.1 68
2019-04-08 12:00:00 18.9 37 Sudoeste 55 Sudoeste 0 1013.1 0.2 71
2019-04-08 11:00:00 17.4 33 Sudoeste 45 Sudoeste 0 1012.9 0.3 78
2019-04-08 10:00:00 16.2 12 Oeste 30 Sudoeste 0 1013.2 1 75
2019-04-08 09:00:00 13 5 Noroeste 11 Noroeste 0 1012.9 0.6 86
2019-04-08 08:00:00 11.5 5 Norte 13 Noroeste 0 1012.6 0.1 92
2019-04-08 07:00:00 12 5 Norte 13 Nordeste 0 1012.2 -0.5 92
2019-04-08 06:00:00 11.4 8 Este 11 Este 0 1012.3 -0.6 92
2019-04-08 05:00:00 11.6 6 Noroeste 11 Norte 0 1012.5 -0.8 93
2019-04-08 04:00:00 12.9 3 Norte 9 Norte 0 1012.7 -0.9 91
2019-04-08 03:00:00 13.1 7 Noroeste 13 Oeste 0 1012.9 -0.7 89
2019-04-08 02:00:00 14.5 9 Oeste 30 Sudoeste 0 1013.3 -0.1 86
2019-04-08 01:00:00 15.1 24 Oeste 35 Oeste 0 1013.6 0.7 85
2019-04-08 00:00:00 15.3 12 Oeste 32 Sudoeste 0 1013.6 1.1 75
2019-04-07 23:00:00 15.8 19 Sudoeste 28 Sudoeste 0 1013.4 1.3 72
2019-04-07 22:00:00 15.6 20 Sudoeste 46 Sudoeste 0 1012.9 1.3 74
2019-04-07 21:00:00 16 32 Sudoeste 50 Sudoeste 0 1012.5 1.4 72
2019-04-07 20:00:00 17.8 31 Sudoeste 42 Sudoeste 0 1012.1 1.1 62
2019-04-07 19:00:00 17.8 25 Sudoeste 46 Sudoeste 0 1011.6 0.7 68
2019-04-07 18:00:00 18.1 36 Sudoeste 50 Sudoeste 0 1011.1 0.2 65
2019-04-07 17:00:00 18.5 36 Sudoeste 54 Sudoeste 0 1011 0.2 61
2019-04-07 16:00:00 18.3 37 Sudoeste 50 Sudoeste 0 1010.9 0.2 62
2019-04-07 15:00:00 18.5 24 Sudoeste 42 Sur 0 1010.9 0.5 55
2019-04-07 14:00:00 19.1 26 Sudoeste 35 Sudoeste 0 1010.8 1 51
2019-04-07 13:00:00 17.9 18 Sur 26 Sur 0 1010.7 1.5 53
2019-04-07 12:00:00 17.7 12 Sur 21 Sur 0 1010.4 1.7 41
2019-04-07 11:00:00 16.7 12 Sur 22 Sur 0 1009.8 1.9 52
2019-04-07 10:00:00 15.6 11 Sur 18 Sudoeste 0 1009.2 1.6 55
2019-04-07 09:00:00 12.2 9 Nordeste 15 Norte 0 1008.7 1.4 60
2019-04-07 08:00:00 9.6 8 Nordeste 17 Norte 0 1007.9 0.9 67
2019-04-07 07:00:00 9.6 10 Norte 21 Noroeste 0 1007.6 0.5 69
2019-04-07 06:00:00 10.2 12 Noroeste 18 Noroeste 0 1007.3 -0.4 66
2019-04-07 05:00:00 9.1 8 Noroeste 17 Norte 0 1007 -0.9 75
2019-04-07 04:00:00 9.4 13 Noroeste 15 Noroeste 0 1007.1 -0.9 74
2019-04-07 03:00:00 9.4 8 Oeste 15 Noroeste 0 1007.7 -0.5 76
2019-04-07 02:00:00 10.6 8 Noroeste 15 Norte 0 1007.9 0.4 67
2019-04-07 01:00:00 11.5 3 Sur 13 Noroeste 0 1008 0.9 72
2019-04-07 00:00:00 11.4 8 Noroeste 17 Noroeste 0 1008.2 1.9 72
2019-04-06 23:00:00 12.3 6 Noroeste 24 Norte 0 1007.5 1.4 65
2019-04-06 22:00:00 12 6 Oeste 18 Oeste 0 1007.1 1.8 75
2019-04-06 21:00:00 12.6 14 Oeste 42 Oeste 0 1006.3 1.9 75
2019-04-06 20:00:00 13 31 Oeste 68 Oeste 0.3 1006.1 1.7 85
2019-04-06 19:00:00 14.4 46 Sudoeste 72 Sudoeste 0 1005.3 0.7 71
2019-04-06 18:00:00 15.6 61 Sudoeste 87 Oeste 0 1004.4 0.2 61
2019-04-06 17:00:00 15.9 55 Sudoeste 85 Sudoeste 0 1004.4 0 59
2019-04-06 16:00:00 17 59 Sudoeste 80 Oeste 0 1004.6 -0.5 59
2019-04-06 15:00:00 17.1 55 Sudoeste 78 Sudoeste 0 1004.2 -1.1 60
2019-04-06 14:00:00 17.4 50 Sudoeste 71 Oeste 0 1004.4 -0.9 51
2019-04-06 13:00:00 17.2 43 Sudoeste 58 Oeste 0 1005.1 0.2 51
2019-04-06 12:00:00 17.4 22 Sudoeste 50 Sudoeste 0 1005.3 0.7 44
2019-04-06 11:00:00 16 13 Oeste 33 Oeste 0 1005.3 1.2 48
2019-04-06 10:00:00 14.1 9 Sudoeste 17 Oeste 0 1004.9 1.7 51
2019-04-06 09:00:00 11.6 8 Sudoeste 13 Oeste 0 1004.6 1.4 60
2019-04-06 08:00:00 8.1 5 Norte 15 Noroeste 0 1004.1 1.5 68
2019-04-06 07:00:00 8 10 Sudoeste 18 Noroeste 0 1003.2 0.5 69
2019-04-06 06:00:00 8 9 Noroeste 22 Noroeste 0 1003.2 0.5 70
2019-04-06 05:00:00 8.1 11 Noroeste 21 Norte 0 1002.6 -0.5 69
2019-04-06 04:00:00 9.1 12 Noroeste 17 Noroeste 0 1002.7 -0.4 65
2019-04-06 03:00:00 9.6 8 Noroeste 24 Oeste 0 1002.7 -0.6 69
2019-04-06 02:00:00 11.5 19 Oeste 30 Sudoeste 0 1003.1 0.2 60
2019-04-06 01:00:00 10.5 9 Noroeste 15 Oeste 0 1003.1 1.5 68
2019-04-06 00:00:00 11.4 3 Oeste 9 Sudoeste 0 1003.3 2.7 65
2019-04-05 23:00:00 10.4 -- -- -- -- 0 1002.9 2.3 87
2019-04-05 22:00:00 12.2 6 Sudeste 45 Oeste 0 1001.6 1.4 74
2019-04-05 21:00:00 13 33 Oeste 61 Oeste 0.2 1000.6 0.5 73
2019-04-05 20:00:00 14.2 48 Sudoeste 63 Sudoeste 0 1000.6 0.3 65
2019-04-05 19:00:00 14.1 42 Sudoeste 59 Sudoeste 0 1000.2 -0.9 81
2019-04-05 18:00:00 14.5 39 Sudoeste 54 Sudoeste 0 1000.1 -0.9 81
2019-04-05 17:00:00 13 25 Sudoeste 52 Oeste 0.3 1000.3 -0.7 91
2019-04-05 16:00:00 13.9 42 Oeste 72 Sudoeste 0 1001.1 -0.7 79
2019-04-05 15:00:00 15.1 54 Sudoeste 76 Oeste 0 1001 -1 76
2019-04-05 14:00:00 14.9 45 Sudoeste 63 Oeste 0.7 1001 -0.2 80
2019-04-05 13:00:00 14.7 35 Sudoeste 50 Oeste 0.2 1001.8 0.6 82
2019-04-05 12:00:00 16.4 29 Oeste 59 Sudoeste 0 1002 0.9 61
2019-04-05 11:00:00 16.4 43 Sudoeste 63 Sudoeste 0 1001.2 0.1 62
2019-04-05 10:00:00 15.8 30 Oeste 45 Oeste 0 1001.2 0.3 53
2019-04-05 09:00:00 13.7 10 Oeste 24 Oeste 0 1001.1 0.4 67
2019-04-05 08:00:00 10.2 5 Noroeste 9 Noroeste 0 1001.1 0.2 90
2019-04-05 07:00:00 10.1 3 Norte 11 Norte 0 1000.9 -0.2 91
2019-04-05 06:00:00 10.8 7 Noroeste 13 Oeste 0 1000.7 -1 90
2019-04-05 05:00:00 12.9 17 Oeste 41 Sudoeste 0 1000.9 -1.1 74
2019-04-05 04:00:00 13.5 32 Sudoeste 48 Oeste 0 1001.1 -1.1 74
2019-04-05 03:00:00 13.5 30 Sudoeste 46 Sudoeste 0 1001.7 -0.5 74
2019-04-05 02:00:00 13.9 21 Sudoeste 30 Sudoeste 0 1002 -0.5 84
2019-04-05 01:00:00 13.7 6 Nordeste 8 Nordeste 0 1002.2 -0.1 90
2019-04-05 00:00:00 13.2 8 Nordeste 11 Nordeste 0 1002.2 0.2 91
2019-04-04 23:00:00 13.5 7 Norte 11 Norte 0 1002.5 0.5 89
2019-04-04 22:00:00 13.5 5 Norte 15 Oeste 0 1002.3 0.3 90
2019-04-04 21:00:00 15 3 Sudeste 18 Sur 0 1002 0 75
2019-04-04 20:00:00 15.4 15 Sudeste 22 Sudeste 0 1002 0.1 73
2019-04-04 19:00:00 15.7 15 Sudeste 24 Sudeste 0 1002 0.1 70
2019-04-04 18:00:00 16.5 13 Sudeste 24 Este 0 1002 -0.1 62
2019-04-04 17:00:00 17.3 14 Este 26 Este 0 1001.9 -0.5 56
2019-04-04 16:00:00 17.9 17 Sudeste 30 Sudeste 0 1001.9 -0.6 54
2019-04-04 15:00:00 19 18 Este 35 Este 0 1002.1 -0.5 48
2019-04-04 14:00:00 19.2 25 Este 39 Este 0 1002.4 0.2 50
2019-04-04 13:00:00 19.1 27 Este 42 Este 0 1002.5 0.9 50
2019-04-04 12:00:00 17.7 30 Este 41 Este 0 1002.6 1.3 58
2019-04-04 11:00:00 16.1 28 Nordeste 39 Nordeste 0 1002.2 1.8 66
2019-04-04 10:00:00 15.6 30 Nordeste 39 Nordeste 0 1001.6 2.2 74
2019-04-04 09:00:00 14.4 23 Este 32 Nordeste 0 1001.3 2.6 83
2019-04-04 08:00:00 13.6 20 Nordeste 42 Nordeste 0 1000.4 1.8 88
2019-04-04 07:00:00 14.2 28 Nordeste 39 Nordeste 0 999.4 0.9 85
2019-04-04 06:00:00 13 15 Nordeste 21 Este 0 998.7 0.2 90
2019-04-04 05:00:00 12.1 12 Nordeste 17 Nordeste 0 998.6 -0.1 88
2019-04-04 04:00:00 12.4 13 Nordeste 22 Nordeste 0 998.5 -0.7 100
2019-04-04 03:00:00 13 11 Nordeste 17 Nordeste 0 998.5 -0.7 99
2019-04-04 02:00:00 13.1 9 Este 13 Norte 0 998.7 -0.7 94
2019-04-04 01:00:00 14.1 6 Norte 15 Norte 0 999.2 0 93
2019-04-04 00:00:00 15.5 8 Oeste 24 Sudoeste 0 999.2 0.8 91
2019-04-03 23:00:00 16.4 19 Sudoeste 33 Sudoeste 0 999.4 0.6 84
2019-04-03 22:00:00 17.1 29 Sudoeste 52 Sudoeste 0 999.2 0.3 77
2019-04-03 21:00:00 17.3 38 Sudoeste 52 Sudoeste 0 998.4 -1.4 76
2019-04-03 20:00:00 18 22 Sudoeste 41 Sur 0 998.8 -2.1 75
2019-04-03 19:00:00 18.6 16 Sur 28 Sudoeste 0 998.9 -3.4 77
2019-04-03 18:00:00 18.8 15 Sur 22 Sur 0 999.8 -3.9 79
2019-04-03 17:00:00 19 15 Sudoeste 37 Sudoeste 0 1000.9 -4 79
2019-04-03 16:00:00 19.1 18 Sur 30 Sudoeste 0 1002.3 -3.5 80
2019-04-03 15:00:00 19.1 18 Sur 24 Sur 0 1003.7 -2.5 75
2019-04-03 14:00:00 18.7 15 Sur 26 Sur 0 1004.9 -1.5 74
2019-04-03 13:00:00 18.2 17 Sudoeste 22 Sur 0 1005.8 -1 78
2019-04-03 12:00:00 17.3 10 Sur 15 Sur 0 1006.2 -1 82
2019-04-03 11:00:00 17 8 Sur 13 Sur 0 1006.4 -1.3 77
2019-04-03 10:00:00 16.3 4 Oeste 17 Norte 0 1006.8 -1.3 62
2019-04-03 09:00:00 13.8 4 Norte -- -- 0 1007.2 -1.1 77
2019-04-03 08:00:00 12 5 Norte 13 Norte 0 1007.7 -1.3 96
2019-04-03 07:00:00 12.2 4 Norte 11 Noroeste 0 1008.1 -1.4 97
2019-04-03 06:00:00 11.8 7 Norte 11 Norte 0 1008.3 -2 97
2019-04-03 05:00:00 12.9 6 Norte 9 Norte 0 1009 -1.8 96
2019-04-03 04:00:00 13.2 6 Norte 11 Norte 0 1009.5 -1.4 96
2019-04-03 03:00:00 13.6 9 Noroeste 11 Noroeste 0 1010.3 -1 95
2019-04-03 02:00:00 15 8 Noroeste 18 Sudoeste 0 1010.8 -0.5 92
2019-04-03 01:00:00 15.2 6 Oeste 18 Sudoeste 0 1010.9 0.1 90
2019-04-03 00:00:00 15.3 2 Oeste 9 Noroeste 0 1011.3 0.9 88
2019-04-02 23:00:00 16.3 11 Oeste 21 Sudoeste 0 1011.3 0.9 75
2019-04-02 22:00:00 16.6 6 Sur 22 Sudoeste 0 1010.8 0.3 79
2019-04-02 21:00:00 17.1 15 Sudoeste 24 Sudoeste 0 1010.4 -0.3 72
2019-04-02 20:00:00 17.5 15 Sur 21 Sur 0 1010.4 -1 79
2019-04-02 19:00:00 18 17 Sur 26 Sur 0 1010.5 -1.4 77
2019-04-02 18:00:00 18.5 16 Sur 26 Sur 0 1010.7 -1.9 77
2019-04-02 17:00:00 18.9 16 Sur 24 Sur 0 1011.4 -2.1 79
2019-04-02 16:00:00 18.8 20 Sur 26 Sur 0 1011.9 -2.2 79
2019-04-02 15:00:00 19 16 Sur 21 Sur 0 1012.6 -1.9 77
2019-04-02 14:00:00 18.2 14 Sur 18 Sur 0 1013.5 -0.9 77
2019-04-02 13:00:00 18.3 12 Sur 18 Sudoeste 0 1014.1 -0.1 75
2019-04-02 12:00:00 17.8 13 Sudoeste 18 Sudoeste 0 1014.5 0.2 75
2019-04-02 11:00:00 17.2 9 Sudoeste 15 Oeste 0 1014.4 0.5 72
2019-04-02 10:00:00 15.4 10 Noroeste 18 Noroeste 0 1014.2 0.3 76
2019-04-02 09:00:00 12.7 13 Norte 22 Noroeste 0 1014.3 0.7 84
2019-04-02 08:00:00 11.9 8 Norte 22 Noroeste 0 1013.9 -0.1 89
2019-04-02 07:00:00 12.5 16 Noroeste 24 Noroeste 0 1013.9 -0.3 88
2019-04-02 06:00:00 12.7 14 Noroeste 22 Noroeste 0 1013.6 -0.9 89
2019-04-02 05:00:00 13.2 13 Noroeste 18 Noroeste 0 1014 -0.7 90
2019-04-02 04:00:00 13.3 9 Norte 15 Norte 0 1014.2 -0.4 93
2019-04-02 03:00:00 13.7 11 Norte 15 Norte 0 1014.5 0.2 91
2019-04-02 02:00:00 14.1 11 Norte 15 Nordeste 0 1014.7 1 97
2019-04-02 01:00:00 14.3 10 Nordeste 15 Nordeste 0 1014.6 1.8 96
2019-04-02 00:00:00 14.6 10 Nordeste 15 Norte 0 1014.3 2.3 95
2019-04-01 23:00:00 14.9 11 Nordeste 17 Nordeste 0 1013.7 2.1 95
2019-04-01 22:00:00 15.8 7 Nordeste 18 Oeste 0 1012.8 1.1 89
2019-04-01 21:00:00 16 9 Sudoeste 30 Sur 0 1012 0.4 93
2019-04-01 20:00:00 16.8 22 Sur 30 Sur 0 1011.6 -0.2 85
2019-04-01 19:00:00 17.8 15 Sur 26 Sur 0 1011.7 -0.2 81
2019-04-01 18:00:00 18.3 17 Sur 28 Sur 0 1011.6 -0.7 81
2019-04-01 17:00:00 18.6 21 Sur 28 Sur 0 1011.8 -1 81
2019-04-01 16:00:00 18.8 21 Sur 28 Sur 0 1011.9 -1.2 81
2019-04-01 15:00:00 18.3 14 Sur 22 Sur 0 1012.3 -0.7 82
2019-04-01 14:00:00 18.3 16 Sur 22 Sur 0 1012.8 0.2 83
2019-04-01 13:00:00 17.9 15 Sudoeste 21 Sur 0 1013.1 1.1 85
2019-04-01 12:00:00 16.6 9 Sur 15 Sur 0 1013 1.5 89
2019-04-01 11:00:00 15.8 4 Sur 11 Noroeste 0 1012.6 1.9 92
2019-04-01 10:00:00 14.8 0 Calma 9 Noroeste 0 1012 1.9 97
2019-04-01 09:00:00 14 7 Norte 13 Norte 0 1011.5 1.4 99
2019-04-01 08:00:00 12.9 9 Norte 11 Norte 0 1010.7 0.5 100
2019-04-01 07:00:00 13.9 3 Oeste 9 Noroeste 0 1010.1 -0.3 99
2019-04-01 06:00:00 14.2 4 Noroeste 9 Oeste 0 1010.1 -0.8 99
2019-04-01 05:00:00 14.3 8 Oeste 11 Oeste 0 1010.2 -0.6 99
2019-04-01 04:00:00 14.4 3 Sur 13 Sudoeste 1.2 1010.4 -0.4 100
2019-04-01 03:00:00 14.1 5 Sudoeste 11 Oeste 0.7 1010.9 0.2 99
2019-04-01 02:00:00 13.9 9 Sudoeste 13 Sudoeste 1.5 1010.8 0.4 99
2019-04-01 01:00:00 14 6 Este 8 Este 1.1 1010.8 1 100
2019-04-01 00:00:00 14.2 5 Nordeste 8 Nordeste 0.9 1010.7 1.8 100
2019-03-31 23:00:00 14.2 4 Sudoeste 15 Sudoeste 0.9 1010.4 2.2 99
2019-03-31 22:00:00 14.2 13 Sudoeste 18 Sudoeste 1.1 1009.8 2.1 99
2019-03-31 21:00:00 14.1 8 Sudoeste 15 Oeste 1.6 1008.9 1 98
2019-03-31 20:00:00 14.6 8 Oeste 15 Oeste 0 1008.2 0.5 91
2019-03-31 19:00:00 14.4 9 Norte 17 Noroeste 0 1007.7 0.1 93
2019-03-31 18:00:00 14.6 11 Sudoeste 22 Sudoeste 0 1007.9 0 97
2019-03-31 17:00:00 15.1 9 Noroeste 15 Oeste 0 1007.7 -0.8 83
2019-03-31 16:00:00 14.8 9 Noroeste 26 Noroeste 0.2 1007.6 -1.5 87
2019-03-31 15:00:00 14.4 17 Noroeste 30 Oeste 0 1007.9 -1.8 90
2019-03-31 14:00:00 14.2 15 Noroeste 35 Noroeste 0.2 1008.5 -1.3 90
2019-03-31 13:00:00 14.1 21 Noroeste 32 Noroeste 0.3 1009.1 -0.6 88
2019-03-31 12:00:00 13.6 14 Noroeste 26 Noroeste 0 1009.7 -0.1 88
2019-03-31 11:00:00 13.6 15 Noroeste 28 Noroeste 0 1009.8 -0.1 85
2019-03-31 10:00:00 13.3 18 Noroeste 30 Noroeste 0 1009.7 0 85
2019-03-31 09:00:00 12.9 16 Noroeste 24 Norte 0.4 1009.8 -0.5 88
2019-03-31 08:00:00 13.1 9 Norte 24 Noroeste 0.2 1009.9 -1.4 86
2019-03-31 07:00:00 13.7 9 Noroeste 28 Noroeste 0 1009.7 -1.7 78
2019-03-31 06:00:00 13.4 8 Norte 28 Noroeste 0 1010.3 -2.3 80
2019-03-31 05:00:00 12.8 10 Noroeste 21 Noroeste 0.2 1011.3 -1.8 86
2019-03-31 03:00:00 14.2 9 Este 30 Noroeste 0 1012.6 -2.8 79
2019-03-31 01:00:00 14.1 8 Noroeste 32 Nordeste 0 1013.1 -2.1 85
2019-03-31 00:00:00 13.5 25 Nordeste 37 Nordeste 0.1 1014.5 -0.3 86
2019-03-30 23:00:00 13.8 19 Este 41 Este 0.3 1015.4 2 88
2019-03-30 22:00:00 15.3 32 Este 45 Este 0 1015.2 2.3 70
2019-03-30 21:00:00 15.5 37 Este 54 Este 0 1014.8 1.8 66
2019-03-30 20:00:00 15.9 36 Este 52 Este 0 1013.4 0.2 63
2019-03-30 19:00:00 17 39 Este 58 Este 0 1012.9 -1.1 57
2019-03-30 18:00:00 18.2 44 Nordeste 58 Nordeste 0 1013 -2.1 52
2019-03-30 17:00:00 18.9 44 Nordeste 61 Este 0 1013.2 -2 52
2019-03-30 16:00:00 19.5 41 Este 55 Nordeste 0 1014 -1.9 50
2019-03-30 15:00:00 19.9 41 Este 61 Este 0 1015.1 -1.8 48
2019-03-30 14:00:00 19.5 48 Este 67 Este 0 1015.2 -2.9 48
2019-03-30 13:00:00 19.6 44 Este 61 Este 0 1015.9 -2.7 46
2019-03-30 12:00:00 19.3 40 Nordeste 55 Nordeste 0 1016.9 -1.9 45
2019-03-30 11:00:00 18.1 39 Este 50 Este 0 1018.1 -0.7 46
2019-03-30 10:00:00 16.6 26 Nordeste 42 Nordeste 0 1018.6 -0.3 50
2019-03-30 09:00:00 14.8 10 Oeste 24 Nordeste 0 1018.8 0.1 54
2019-03-30 08:00:00 12.5 15 Norte 30 Nordeste 0 1018.8 0.1 63
2019-03-30 07:00:00 11.5 0 Calma 13 Sudoeste 0 1018.9 0 63
2019-03-30 06:00:00 11.9 5 Oeste 22 Noroeste 0 1018.7 -0.7 63
2019-03-30 05:00:00 12.7 15 Noroeste 26 Noroeste 0 1018.7 -1.1 60
2019-03-30 04:00:00 12.2 10 Norte 18 Noroeste 0 1018.9 -2 60
2019-03-30 03:00:00 11.9 3 Sudoeste 15 Noroeste 0 1019.4 -1.8 59
2019-03-30 02:00:00 13 9 Oeste 15 Oeste 0 1019.8 -1.3 55
2019-03-30 01:00:00 13.4 4 Norte -- -- -- 1020.9 0.1 55
2019-03-30 00:00:00 13.5 25 Nordeste 42 Este 0 1021.2 0.9 59
2019-03-29 23:00:00 13.8 28 Este 52 Nordeste 0 1021.1 1.9 63
2019-03-29 22:00:00 14.3 36 Nordeste 50 Nordeste 0 1020.8 1.9 65
2019-03-29 21:00:00 14.8 39 Nordeste 58 Nordeste 0 1020.3 2 64
2019-03-29 20:00:00 15.4 42 Nordeste 59 Nordeste 0 1019.2 0.5 62
2019-03-29 19:00:00 16.6 45 Nordeste 61 Nordeste 0 1018.9 0 53
2019-03-29 18:00:00 17.6 50 Nordeste 63 Nordeste 0 1018.3 -1.1 48
2019-03-29 17:00:00 17.1 43 Este 61 Este 0 1018.7 -1.7 52
2019-03-29 16:00:00 18.9 46 Este 61 Nordeste 0 1018.9 -2 46
2019-03-29 15:00:00 19.1 43 Este 59 Este 0 1019.4 -2 45
2019-03-29 14:00:00 18.7 41 Este 61 Este 0 1020.4 -1.7 46
2019-03-29 13:00:00 20 42 Nordeste 58 Nordeste 0 1020.9 -1.6 39
2019-03-29 12:00:00 19.3 39 Nordeste 58 Nordeste 0 1021.4 -1.1 41
2019-03-29 11:00:00 18 40 Nordeste 59 Nordeste 0 1022.1 -0.5 45
2019-03-29 10:00:00 16.9 35 Nordeste 52 Nordeste 0 1022.5 0.4 49
2019-03-29 09:00:00 15.5 26 Nordeste 39 Nordeste 0 1022.5 0.4 53
2019-03-29 08:00:00 12.8 11 Noroeste 22 Noroeste 0 1022.6 0.3 54
2019-03-29 07:00:00 11 14 Norte 32 Noroeste 0 1022.1 0.1 55
2019-03-29 06:00:00 11.8 18 Norte 30 Norte 0 1022.1 -0.2 56
2019-03-29 05:00:00 13.4 18 Nordeste 32 Norte 0 1022.3 -0.3 53
2019-03-29 04:00:00 11.6 14 Norte 32 Noroeste 0 1022 -1.1 55
2019-03-29 03:00:00 11.9 14 Norte 32 Norte 0 1022.3 -1.1 56
2019-03-29 02:00:00 12 18 Norte 26 Norte 0 1022.6 -0.8 62
2019-03-29 01:00:00 12.8 13 Norte 22 Norte 0 1023.1 -0.5 56
2019-03-29 00:00:00 14.2 14 Norte 24 Norte 0 1023.4 0.1 38
2019-03-28 23:00:00 14.6 15 Nordeste 28 Norte 0 1023.4 0.5 31
2019-03-28 22:00:00 13.8 18 Nordeste 30 Nordeste 0 1023.6 1.2 50
2019-03-28 21:00:00 13.6 15 Nordeste 32 Este 0 1023.3 1.5 58
2019-03-28 20:00:00 14.5 26 Este 46 Este 0 1022.9 1.2 57
2019-03-28 19:00:00 16 28 Este 58 Nordeste 0 1022.4 0.4 54
2019-03-28 18:00:00 17.3 40 Este 55 Este 0 1021.8 -0.6 47
2019-03-28 17:00:00 18.8 40 Este 50 Este 0 1021.7 -1.4 38
2019-03-28 16:00:00 19.9 31 Este 48 Este 0 1022 -1.9 34
2019-03-28 15:00:00 20.2 35 Este 48 Nordeste 0 1022.4 -2.1 26
2019-03-28 14:00:00 20 32 Este 45 Este 0 1023.1 -1.8 24
2019-03-28 13:00:00 19.8 30 Nordeste 52 Nordeste 0 1023.9 -0.6 28
2019-03-28 12:00:00 19.8 27 Este 42 Nordeste 0 1024.5 0.4 27
2019-03-28 11:00:00 18.9 27 Nordeste 45 Nordeste 0 1024.9 0.9 25
2019-03-28 10:00:00 17.7 28 Nordeste 39 Este 0 1024.5 1 25
2019-03-28 09:00:00 16.1 18 Nordeste 26 Nordeste 0 1024.1 1.1 26
2019-03-28 08:00:00 10.8 17 Noroeste 35 Noroeste 0 1024 1.1 46
2019-03-28 07:00:00 10 19 Noroeste 26 Noroeste 0 1023.5 0.6 51
2019-03-28 06:00:00 10.2 19 Noroeste 28 Noroeste 0 1023 0 54
2019-03-28 05:00:00 10.6 17 Norte 22 Norte 0 1022.9 -0.3 55
2019-03-28 04:00:00 12.2 13 Norte 21 Nordeste 0 1022.9 -0.4 48
2019-03-28 03:00:00 10.6 11 Norte 22 Norte 0 1023 -0.3 52
2019-03-28 02:00:00 10.8 11 Norte 18 Nordeste 0 1023.2 -0.2 56
2019-03-28 01:00:00 12.9 13 Nordeste 28 Norte 0 1023.3 0.2 46
2019-03-28 00:00:00 13.4 14 Norte 24 Norte 0 1023.3 1 49
2019-03-27 23:00:00 13.5 15 Nordeste 22 Nordeste 0 1023.4 2.2 58
2019-03-27 22:00:00 13.8 13 Nordeste 28 Nordeste 0 1023.1 3.1 60
2019-03-27 21:00:00 14 17 Nordeste 30 Este 0 1022.3 3.1 62
2019-03-27 20:00:00 14.6 25 Este 45 Este 0 1021.2 2.6 61
2019-03-27 19:00:00 15.9 37 Este 50 Este 0 1020 1.3 51
2019-03-27 18:00:00 17.6 36 Este 58 Nordeste 0 1019.2 0.4 43
2019-03-27 17:00:00 18.5 40 Este 58 Este 0 1018.6 -0.4 41
2019-03-27 16:00:00 19.3 41 Este 61 Este 0 1018.7 -0.4 35
2019-03-27 15:00:00 19.3 46 Este 61 Este 0 1018.8 -0.6 37
2019-03-27 14:00:00 19.5 45 Este 63 Este 0 1019 -0.4 33
2019-03-27 13:00:00 19.4 40 Nordeste 63 Nordeste 0 1019.1 -0.1 31
2019-03-27 12:00:00 18.8 41 Nordeste 65 Nordeste 0 1019.4 0.5 33
2019-03-27 11:00:00 17.5 44 Nordeste 65 Nordeste 0 1019.4 0.6 36
2019-03-27 10:00:00 16.7 38 Nordeste 63 Nordeste 0 1019.2 0.7 38
2019-03-27 09:00:00 16 34 Nordeste 59 Nordeste 0 1018.9 1 36
2019-03-27 08:00:00 14.3 41 Norte 61 Nordeste 0 1018.8 0.8 45
2019-03-27 07:00:00 13.4 34 Nordeste 65 Norte 0 1018.5 0.3 48
2019-03-27 06:00:00 13.3 36 Nordeste 59 Nordeste 0 1017.9 -0.5 49
2019-03-27 05:00:00 13.4 32 Nordeste 63 Nordeste 0 1018 -0.4 48
2019-03-27 04:00:00 13.5 26 Nordeste 58 Nordeste 0 1018.2 -0.6 49
2019-03-27 03:00:00 13.9 32 Nordeste 50 Nordeste 0 1018.4 0.1 43
2019-03-27 02:00:00 14 31 Nordeste 58 Nordeste 0 1018.4 1 45
2019-03-27 01:00:00 13.8 35 Nordeste 54 Nordeste 0 1018.8 2.4 55
2019-03-27 00:00:00 14 35 Nordeste 63 Nordeste 0 1018.3 3.2 51